sensor_id;sensor_type;location;lat;lon;timestamp;pressure;altitude;pressure_sealevel;temperature;humidity
5146;BME280;2591;48.144;15.152;2023-02-15T00:01:41;78303.25;;;-144.65;100.00
5146;BME280;2591;48.144;15.152;2023-02-15T00:04:12;78297.13;;;-144.65;100.00
5146;BME280;2591;48.144;15.152;2023-02-15T00:06:40;78301.22;;;-144.65;100.00
5146;BME280;2591;48.144;15.152;2023-02-15T00:09:08;78293.06;;;-144.65;100.00
5146;BME280;2591;48.144;15.152;2023-02-15T00:11:37;78293.06;;;-144.65;100.00
5146;BME280;2591;48.144;15.152;2023-02-15T00:14:12;78297.13;;;-144.65;100.00
5146;BME280;2591;48.144;15.152;2023-02-15T00:16:41;78295.09;;;-144.65;100.00
5146;BME280;2591;48.144;15.152;2023-02-15T00:19:11;78291.00;;;-144.65;100.00
5146;BME280;2591;48.144;15.152;2023-02-15T00:21:39;78293.06;;;-144.65;100.00
5146;BME280;2591;48.144;15.152;2023-02-15T00:24:08;78297.13;;;-144.65;100.00
5146;BME280;2591;48.144;15.152;2023-02-15T00:26:38;78288.97;;;-144.65;100.00
5146;BME280;2591;48.144;15.152;2023-02-15T00:29:06;78297.13;;;-144.65;100.00
5146;BME280;2591;48.144;15.152;2023-02-15T00:31:36;78295.09;;;-144.65;100.00
5146;BME280;2591;48.144;15.152;2023-02-15T00:34:05;78293.06;;;-144.65;100.00
5146;BME280;2591;48.144;15.152;2023-02-15T00:36:34;78288.97;;;-144.65;100.00
5146;BME280;2591;48.144;15.152;2023-02-15T00:39:02;78297.13;;;-144.65;100.00
5146;BME280;2591;48.144;15.152;2023-02-15T00:41:31;78297.13;;;-144.65;100.00
5146;BME280;2591;48.144;15.152;2023-02-15T00:43:59;78299.16;;;-144.65;100.00
5146;BME280;2591;48.144;15.152;2023-02-15T00:46:27;78288.97;;;-144.65;100.00
5146;BME280;2591;48.144;15.152;2023-02-15T00:48:56;78288.97;;;-144.65;100.00
5146;BME280;2591;48.144;15.152;2023-02-15T00:51:25;78288.97;;;-144.65;100.00
5146;BME280;2591;48.144;15.152;2023-02-15T00:53:52;78280.81;;;-144.65;100.00
5146;BME280;2591;48.144;15.152;2023-02-15T00:56:20;78276.72;;;-144.65;100.00
5146;BME280;2591;48.144;15.152;2023-02-15T00:58:48;78272.66;;;-144.65;100.00
5146;BME280;2591;48.144;15.152;2023-02-15T01:01:17;78272.66;;;-144.65;100.00
5146;BME280;2591;48.144;15.152;2023-02-15T01:03:45;78280.81;;;-144.65;100.00
5146;BME280;2591;48.144;15.152;2023-02-15T01:06:16;78274.69;;;-144.65;100.00
5146;BME280;2591;48.144;15.152;2023-02-15T01:08:45;78276.72;;;-144.65;100.00
5146;BME280;2591;48.144;15.152;2023-02-15T01:11:15;78270.59;;;-144.65;100.00
5146;BME280;2591;48.144;15.152;2023-02-15T01:13:49;78276.72;;;-144.65;100.00
5146;BME280;2591;48.144;15.152;2023-02-15T01:16:17;78272.66;;;-144.65;100.00
5146;BME280;2591;48.144;15.152;2023-02-15T01:18:45;78268.56;;;-144.65;100.00
5146;BME280;2591;48.144;15.152;2023-02-15T01:21:17;78266.53;;;-144.65;100.00
5146;BME280;2591;48.144;15.152;2023-02-15T01:23:46;78260.41;;;-144.65;100.00
5146;BME280;2591;48.144;15.152;2023-02-15T01:26:14;78252.25;;;-144.65;100.00
5146;BME280;2591;48.144;15.152;2023-02-15T01:28:42;78248.16;;;-144.65;100.00
5146;BME280;2591;48.144;15.152;2023-02-15T01:31:11;78244.09;;;-144.65;100.00
5146;BME280;2591;48.144;15.152;2023-02-15T01:33:39;78244.09;;;-144.65;100.00
5146;BME280;2591;48.144;15.152;2023-02-15T01:36:07;78244.09;;;-144.65;100.00
5146;BME280;2591;48.144;15.152;2023-02-15T01:38:37;78237.97;;;-144.65;100.00
5146;BME280;2591;48.144;15.152;2023-02-15T01:41:06;78235.94;;;-144.65;100.00
5146;BME280;2591;48.144;15.152;2023-02-15T01:43:52;78231.84;;;-144.65;100.00
5146;BME280;2591;48.144;15.152;2023-02-15T01:46:23;78223.69;;;-144.65;100.00
5146;BME280;2591;48.144;15.152;2023-02-15T01:48:56;78227.78;;;-144.65;100.00
5146;BME280;2591;48.144;15.152;2023-02-15T01:51:27;78215.53;;;-144.65;100.00
5146;BME280;2591;48.144;15.152;2023-02-15T01:54:02;78215.53;;;-144.65;100.00
5146;BME280;2591;48.144;15.152;2023-02-15T01:56:34;78215.53;;;-144.65;100.00
5146;BME280;2591;48.144;15.152;2023-02-15T01:59:07;78211.44;;;-144.65;100.00
5146;BME280;2591;48.144;15.152;2023-02-15T02:01:37;78211.44;;;-144.65;100.00
5146;BME280;2591;48.144;15.152;2023-02-15T02:04:11;78207.38;;;-144.65;100.00
5146;BME280;2591;48.144;15.152;2023-02-15T02:06:41;78199.22;;;-144.65;100.00
5146;BME280;2591;48.144;15.152;2023-02-15T02:09:10;78203.28;;;-144.65;100.00
5146;BME280;2591;48.144;15.152;2023-02-15T02:11:40;78203.28;;;-144.65;100.00
5146;BME280;2591;48.144;15.152;2023-02-15T02:14:08;78195.13;;;-144.65;100.00
5146;BME280;2591;48.144;15.152;2023-02-15T02:16:41;78195.13;;;-144.65;100.00
5146;BME280;2591;48.144;15.152;2023-02-15T02:19:32;78191.03;;;-144.65;100.00
5146;BME280;2591;48.144;15.152;2023-02-15T02:22:28;78186.97;;;-144.65;100.00
5146;BME280;2591;48.144;15.152;2023-02-15T02:25:30;78182.88;;;-144.65;100.00
5146;BME280;2591;48.144;15.152;2023-02-15T02:28:14;78178.81;;;-144.65;100.00
5146;BME280;2591;48.144;15.152;2023-02-15T02:31:11;78182.88;;;-144.65;100.00
5146;BME280;2591;48.144;15.152;2023-02-15T02:33:49;78182.88;;;-144.65;100.00
5146;BME280;2591;48.144;15.152;2023-02-15T02:36:25;78184.94;;;-144.65;100.00
5146;BME280;2591;48.144;15.152;2023-02-15T02:39:11;78180.84;;;-144.65;100.00
5146;BME280;2591;48.144;15.152;2023-02-15T02:41:46;78182.88;;;-144.65;100.00
5146;BME280;2591;48.144;15.152;2023-02-15T02:44:21;78176.78;;;-144.65;100.00
5146;BME280;2591;48.144;15.152;2023-02-15T02:46:53;78182.88;;;-144.65;100.00
5146;BME280;2591;48.144;15.152;2023-02-15T02:49:34;78174.72;;;-144.65;100.00
5146;BME280;2591;48.144;15.152;2023-02-15T02:52:04;78176.78;;;-144.65;100.00
5146;BME280;2591;48.144;15.152;2023-02-15T02:54:34;78170.66;;;-144.65;100.00
5146;BME280;2591;48.144;15.152;2023-02-15T02:57:04;78174.72;;;-144.65;100.00
5146;BME280;2591;48.144;15.152;2023-02-15T02:59:38;78178.81;;;-144.65;100.00
5146;BME280;2591;48.144;15.152;2023-02-15T03:02:12;78184.94;;;-144.65;100.00
5146;BME280;2591;48.144;15.152;2023-02-15T03:04:45;78178.81;;;-144.65;100.00
5146;BME280;2591;48.144;15.152;2023-02-15T03:07:17;78170.66;;;-144.65;100.00
5146;BME280;2591;48.144;15.152;2023-02-15T03:09:50;78166.56;;;-144.65;100.00
5146;BME280;2591;48.144;15.152;2023-02-15T03:12:21;78160.44;;;-144.65;100.00
5146;BME280;2591;48.144;15.152;2023-02-15T03:14:51;78174.72;;;-144.65;100.00
5146;BME280;2591;48.144;15.152;2023-02-15T03:17:22;78174.72;;;-144.65;100.00
5146;BME280;2591;48.144;15.152;2023-02-15T03:19:56;78178.81;;;-144.65;100.00
5146;BME280;2591;48.144;15.152;2023-02-15T03:22:28;78186.97;;;-144.65;100.00
5146;BME280;2591;48.144;15.152;2023-02-15T03:24:59;78170.66;;;-144.65;100.00
5146;BME280;2591;48.144;15.152;2023-02-15T03:27:33;78170.66;;;-144.65;100.00
5146;BME280;2591;48.144;15.152;2023-02-15T03:30:05;78158.41;;;-144.65;100.00
5146;BME280;2591;48.144;15.152;2023-02-15T03:32:37;78162.50;;;-144.65;100.00
5146;BME280;2591;48.144;15.152;2023-02-15T03:35:07;78162.50;;;-144.65;100.00
5146;BME280;2591;48.144;15.152;2023-02-15T03:37:39;78166.56;;;-144.65;100.00
5146;BME280;2591;48.144;15.152;2023-02-15T03:40:11;78170.66;;;-144.65;100.00
5146;BME280;2591;48.144;15.152;2023-02-15T03:43:01;78176.78;;;-144.65;100.00
5146;BME280;2591;48.144;15.152;2023-02-15T03:45:33;78178.81;;;-144.65;100.00
5146;BME280;2591;48.144;15.152;2023-02-15T03:48:04;78170.66;;;-144.65;100.00
5146;BME280;2591;48.144;15.152;2023-02-15T03:50:37;78178.81;;;-144.65;100.00
5146;BME280;2591;48.144;15.152;2023-02-15T03:53:24;78164.53;;;-144.65;100.00
5146;BME280;2591;48.144;15.152;2023-02-15T03:55:54;78158.41;;;-144.65;100.00
5146;BME280;2591;48.144;15.152;2023-02-15T03:58:22;78156.38;;;-144.65;100.00
5146;BME280;2591;48.144;15.152;2023-02-15T04:01:13;78152.28;;;-144.65;100.00
5146;BME280;2591;48.144;15.152;2023-02-15T04:04:02;78144.13;;;-144.65;100.00
5146;BME280;2591;48.144;15.152;2023-02-15T04:06:33;78138.00;;;-144.65;100.00
5146;BME280;2591;48.144;15.152;2023-02-15T04:09:00;78138.00;;;-144.65;100.00
5146;BME280;2591;48.144;15.152;2023-02-15T04:11:46;78150.25;;;-144.65;100.00
5146;BME280;2591;48.144;15.152;2023-02-15T04:14:13;78140.03;;;-144.65;100.00
5146;BME280;2591;48.144;15.152;2023-02-15T04:17:00;78142.09;;;-144.65;100.00
5146;BME280;2591;48.144;15.152;2023-02-15T04:19:27;78146.16;;;-144.65;100.00
5146;BME280;2591;48.144;15.152;2023-02-15T04:22:14;78150.25;;;-144.65;100.00
5146;BME280;2591;48.144;15.152;2023-02-15T04:24:59;78150.25;;;-144.65;100.00
5146;BME280;2591;48.144;15.152;2023-02-15T04:27:42;78156.38;;;-144.65;100.00
5146;BME280;2591;48.144;15.152;2023-02-15T04:30:12;78146.16;;;-144.65;100.00
5146;BME280;2591;48.144;15.152;2023-02-15T04:32:40;78142.09;;;-144.65;100.00
5146;BME280;2591;48.144;15.152;2023-02-15T04:35:09;78152.28;;;-144.65;100.00
5146;BME280;2591;48.144;15.152;2023-02-15T04:37:38;78154.31;;;-144.65;100.00
5146;BME280;2591;48.144;15.152;2023-02-15T04:40:08;78164.53;;;-144.65;100.00
5146;BME280;2591;48.144;15.152;2023-02-15T04:42:37;78168.59;;;-144.65;100.00
5146;BME280;2591;48.144;15.152;2023-02-15T04:45:05;78174.72;;;-144.65;100.00
5146;BME280;2591;48.144;15.152;2023-02-15T04:47:33;78178.81;;;-144.65;100.00
5146;BME280;2591;48.144;15.152;2023-02-15T04:50:01;78184.94;;;-144.65;100.00
5146;BME280;2591;48.144;15.152;2023-02-15T04:52:29;78176.78;;;-144.65;100.00
5146;BME280;2591;48.144;15.152;2023-02-15T04:54:58;78168.59;;;-144.65;100.00
5146;BME280;2591;48.144;15.152;2023-02-15T04:57:26;78172.69;;;-144.65;100.00
5146;BME280;2591;48.144;15.152;2023-02-15T04:59:53;78170.66;;;-144.65;100.00
5146;BME280;2591;48.144;15.152;2023-02-15T05:02:22;78182.88;;;-144.65;100.00
5146;BME280;2591;48.144;15.152;2023-02-15T05:04:49;78178.81;;;-144.65;100.00
5146;BME280;2591;48.144;15.152;2023-02-15T05:07:17;78184.94;;;-144.65;100.00
5146;BME280;2591;48.144;15.152;2023-02-15T05:09:46;78189.00;;;-144.65;100.00
5146;BME280;2591;48.144;15.152;2023-02-15T05:12:16;78191.03;;;-144.65;100.00
5146;BME280;2591;48.144;15.152;2023-02-15T05:14:43;78193.09;;;-144.65;100.00
5146;BME280;2591;48.144;15.152;2023-02-15T05:17:11;78186.97;;;-144.65;100.00
5146;BME280;2591;48.144;15.152;2023-02-15T05:19:39;78180.84;;;-144.65;100.00
5146;BME280;2591;48.144;15.152;2023-02-15T05:22:07;78178.81;;;-144.65;100.00
5146;BME280;2591;48.144;15.152;2023-02-15T05:24:34;78178.81;;;-144.65;100.00
5146;BME280;2591;48.144;15.152;2023-02-15T05:27:21;78180.84;;;-144.65;100.00
5146;BME280;2591;48.144;15.152;2023-02-15T05:30:07;78180.84;;;-144.65;100.00
5146;BME280;2591;48.144;15.152;2023-02-15T05:32:38;78176.78;;;-144.65;100.00
5146;BME280;2591;48.144;15.152;2023-02-15T05:35:07;78182.88;;;-144.65;100.00
5146;BME280;2591;48.144;15.152;2023-02-15T05:37:35;78184.94;;;-144.65;100.00
5146;BME280;2591;48.144;15.152;2023-02-15T05:40:03;78191.03;;;-144.65;100.00
5146;BME280;2591;48.144;15.152;2023-02-15T05:42:32;78186.97;;;-144.65;100.00
5146;BME280;2591;48.144;15.152;2023-02-15T05:45:00;78186.97;;;-144.65;100.00
5146;BME280;2591;48.144;15.152;2023-02-15T05:47:27;78191.03;;;-144.65;100.00
5146;BME280;2591;48.144;15.152;2023-02-15T05:49:55;78203.28;;;-144.65;100.00
5146;BME280;2591;48.144;15.152;2023-02-15T05:52:23;78215.53;;;-144.65;100.00
5146;BME280;2591;48.144;15.152;2023-02-15T05:54:51;78217.56;;;-144.65;100.00
5146;BME280;2591;48.144;15.152;2023-02-15T05:57:19;78211.44;;;-144.65;100.00
5146;BME280;2591;48.144;15.152;2023-02-15T05:59:48;78215.53;;;-144.65;100.00
5146;BME280;2591;48.144;15.152;2023-02-15T06:02:15;78229.81;;;-144.65;100.00
5146;BME280;2591;48.144;15.152;2023-02-15T06:04:43;78231.84;;;-144.65;100.00
5146;BME280;2591;48.144;15.152;2023-02-15T06:07:11;78233.88;;;-144.65;100.00
5146;BME280;2591;48.144;15.152;2023-02-15T06:09:39;78219.59;;;-144.65;100.00
5146;BME280;2591;48.144;15.152;2023-02-15T06:12:07;78217.56;;;-144.65;100.00
5146;BME280;2591;48.144;15.152;2023-02-15T06:14:34;78223.69;;;-144.65;100.00
5146;BME280;2591;48.144;15.152;2023-02-15T06:17:04;78231.84;;;-144.65;100.00
5146;BME280;2591;48.144;15.152;2023-02-15T06:19:32;78240.00;;;-144.65;100.00
5146;BME280;2591;48.144;15.152;2023-02-15T06:21:59;78240.00;;;-144.65;100.00
5146;BME280;2591;48.144;15.152;2023-02-15T06:24:27;78244.09;;;-144.65;100.00
5146;BME280;2591;48.144;15.152;2023-02-15T06:26:55;78244.09;;;-144.65;100.00
5146;BME280;2591;48.144;15.152;2023-02-15T06:29:23;78242.06;;;-144.65;100.00
5146;BME280;2591;48.144;15.152;2023-02-15T06:31:51;78248.16;;;-144.65;100.00
5146;BME280;2591;48.144;15.152;2023-02-15T06:34:20;78250.22;;;-144.65;100.00
5146;BME280;2591;48.144;15.152;2023-02-15T06:36:48;78252.25;;;-144.65;100.00
5146;BME280;2591;48.144;15.152;2023-02-15T06:39:16;78254.28;;;-144.65;100.00
5146;BME280;2591;48.144;15.152;2023-02-15T06:41:44;78252.25;;;-144.65;100.00
5146;BME280;2591;48.144;15.152;2023-02-15T06:44:11;78248.16;;;-144.65;100.00
5146;BME280;2591;48.144;15.152;2023-02-15T06:46:39;78248.16;;;-144.65;100.00
5146;BME280;2591;48.144;15.152;2023-02-15T06:49:07;78248.16;;;-144.65;100.00
5146;BME280;2591;48.144;15.152;2023-02-15T06:51:37;78252.25;;;-144.65;100.00
5146;BME280;2591;48.144;15.152;2023-02-15T06:54:05;78248.16;;;-144.65;100.00
5146;BME280;2591;48.144;15.152;2023-02-15T06:56:32;78248.16;;;-144.65;100.00
5146;BME280;2591;48.144;15.152;2023-02-15T06:59:00;78248.16;;;-144.65;100.00
5146;BME280;2591;48.144;15.152;2023-02-15T07:01:28;78244.09;;;-144.65;100.00
5146;BME280;2591;48.144;15.152;2023-02-15T07:03:56;78244.09;;;-144.65;100.00
5146;BME280;2591;48.144;15.152;2023-02-15T07:06:24;78248.16;;;-144.65;100.00
5146;BME280;2591;48.144;15.152;2023-02-15T07:08:53;78248.16;;;-144.65;100.00
5146;BME280;2591;48.144;15.152;2023-02-15T07:11:21;78246.13;;;-144.65;100.00
5146;BME280;2591;48.144;15.152;2023-02-15T07:14:06;78244.09;;;-144.65;100.00
5146;BME280;2591;48.144;15.152;2023-02-15T07:16:34;78252.25;;;-144.65;100.00
5146;BME280;2591;48.144;15.152;2023-02-15T07:19:02;78248.16;;;-144.65;100.00
5146;BME280;2591;48.144;15.152;2023-02-15T07:21:29;78240.00;;;-144.65;100.00
5146;BME280;2591;48.144;15.152;2023-02-15T07:23:59;78240.00;;;-144.65;100.00
5146;BME280;2591;48.144;15.152;2023-02-15T07:26:26;78225.72;;;-144.65;100.00
5146;BME280;2591;48.144;15.152;2023-02-15T07:28:54;78225.72;;;-144.65;100.00
5146;BME280;2591;48.144;15.152;2023-02-15T07:31:22;78221.66;;;-144.65;100.00
5146;BME280;2591;48.144;15.152;2023-02-15T07:33:50;78211.44;;;-144.65;100.00
5146;BME280;2591;48.144;15.152;2023-02-15T07:36:17;78221.66;;;-144.65;100.00
5146;BME280;2591;48.144;15.152;2023-02-15T07:38:45;78215.53;;;-144.65;100.00
5146;BME280;2591;48.144;15.152;2023-02-15T07:41:15;78211.44;;;-144.65;100.00
5146;BME280;2591;48.144;15.152;2023-02-15T07:43:44;78221.66;;;-144.65;100.00
5146;BME280;2591;48.144;15.152;2023-02-15T07:46:14;78223.69;;;-144.65;100.00
5146;BME280;2591;48.144;15.152;2023-02-15T07:48:43;78223.69;;;-144.65;100.00
5146;BME280;2591;48.144;15.152;2023-02-15T07:51:12;78215.53;;;-144.65;100.00
5146;BME280;2591;48.144;15.152;2023-02-15T07:53:42;78203.28;;;-144.65;100.00
5146;BME280;2591;48.144;15.152;2023-02-15T07:56:12;78215.53;;;-144.65;100.00
5146;BME280;2591;48.144;15.152;2023-02-15T07:58:42;78231.84;;;-144.65;100.00
5146;BME280;2591;48.144;15.152;2023-02-15T08:01:21;78240.00;;;-144.65;100.00
5146;BME280;2591;48.144;15.152;2023-02-15T08:03:49;78235.94;;;-144.65;100.00
5146;BME280;2591;48.144;15.152;2023-02-15T08:06:17;78244.09;;;-144.65;100.00
5146;BME280;2591;48.144;15.152;2023-02-15T08:08:45;78244.09;;;-144.65;100.00
5146;BME280;2591;48.144;15.152;2023-02-15T08:11:18;78250.22;;;-144.65;100.00
5146;BME280;2591;48.144;15.152;2023-02-15T08:14:06;78246.13;;;-144.65;100.00
5146;BME280;2591;48.144;15.152;2023-02-15T08:16:36;78244.09;;;-144.65;100.00
5146;BME280;2591;48.144;15.152;2023-02-15T08:19:06;78235.94;;;-144.65;100.00
5146;BME280;2591;48.144;15.152;2023-02-15T08:21:35;78215.53;;;-144.65;100.00
5146;BME280;2591;48.144;15.152;2023-02-15T08:24:05;78203.28;;;-144.65;100.00
5146;BME280;2591;48.144;15.152;2023-02-15T08:26:33;78207.38;;;-144.65;100.00
5146;BME280;2591;48.144;15.152;2023-02-15T08:29:02;78195.13;;;-144.65;100.00
5146;BME280;2591;48.144;15.152;2023-02-15T08:31:31;78211.44;;;-144.65;100.00
5146;BME280;2591;48.144;15.152;2023-02-15T08:33:59;78221.66;;;-144.65;100.00
5146;BME280;2591;48.144;15.152;2023-02-15T08:36:29;78233.88;;;-144.65;100.00
5146;BME280;2591;48.144;15.152;2023-02-15T08:38:59;78229.81;;;-144.65;100.00
5146;BME280;2591;48.144;15.152;2023-02-15T08:41:29;78205.31;;;-144.65;100.00
5146;BME280;2591;48.144;15.152;2023-02-15T08:43:58;78191.03;;;-144.65;100.00
5146;BME280;2591;48.144;15.152;2023-02-15T08:46:28;78197.16;;;-144.65;100.00
5146;BME280;2591;48.144;15.152;2023-02-15T08:48:58;78191.03;;;-144.65;100.00
5146;BME280;2591;48.144;15.152;2023-02-15T08:51:29;78180.84;;;-144.65;100.00
5146;BME280;2591;48.144;15.152;2023-02-15T08:53:58;78189.00;;;-144.65;100.00
5146;BME280;2591;48.144;15.152;2023-02-15T08:56:29;78178.81;;;-144.65;100.00
5146;BME280;2591;48.144;15.152;2023-02-15T08:58:58;78184.94;;;-144.65;100.00
5146;BME280;2591;48.144;15.152;2023-02-15T09:01:27;78205.31;;;-144.65;100.00
5146;BME280;2591;48.144;15.152;2023-02-15T09:03:58;78221.66;;;-144.65;100.00
5146;BME280;2591;48.144;15.152;2023-02-15T09:06:27;78211.44;;;-144.65;100.00
5146;BME280;2591;48.144;15.152;2023-02-15T09:08:56;78189.00;;;-144.65;100.00
5146;BME280;2591;48.144;15.152;2023-02-15T09:11:26;78189.00;;;-144.65;100.00
5146;BME280;2591;48.144;15.152;2023-02-15T09:13:56;78191.03;;;-144.65;100.00
5146;BME280;2591;48.144;15.152;2023-02-15T09:16:26;78215.53;;;-144.65;100.00
5146;BME280;2591;48.144;15.152;2023-02-15T09:18:54;78223.69;;;-144.65;100.00
5146;BME280;2591;48.144;15.152;2023-02-15T09:21:25;78219.59;;;-144.65;100.00
5146;BME280;2591;48.144;15.152;2023-02-15T09:23:56;78219.59;;;-144.65;100.00
5146;BME280;2591;48.144;15.152;2023-02-15T09:26:27;78203.28;;;-144.65;100.00
5146;BME280;2591;48.144;15.152;2023-02-15T09:28:56;78207.38;;;-144.65;100.00
5146;BME280;2591;48.144;15.152;2023-02-15T09:31:26;78203.28;;;-144.65;100.00
5146;BME280;2591;48.144;15.152;2023-02-15T09:33:55;78195.13;;;-144.65;100.00
5146;BME280;2591;48.144;15.152;2023-02-15T09:36:26;78195.13;;;-144.65;100.00
5146;BME280;2591;48.144;15.152;2023-02-15T09:38:56;78215.53;;;-144.65;100.00
5146;BME280;2591;48.144;15.152;2023-02-15T09:44:25;78211.44;;;-144.65;100.00
5146;BME280;2591;48.144;15.152;2023-02-15T09:47:15;78191.03;;;-144.65;100.00
5146;BME280;2591;48.144;15.152;2023-02-15T09:49:56;78170.66;;;-144.65;100.00
5146;BME280;2591;48.144;15.152;2023-02-15T09:52:41;78154.31;;;-144.65;100.00
5146;BME280;2591;48.144;15.152;2023-02-15T09:55:28;78158.41;;;-144.65;100.00
5146;BME280;2591;48.144;15.152;2023-02-15T09:58:07;78152.28;;;-144.65;100.00
5146;BME280;2591;48.144;15.152;2023-02-15T10:00:42;78146.16;;;-144.65;100.00
5146;BME280;2591;48.144;15.152;2023-02-15T10:03:33;78150.25;;;-144.65;100.00
5146;BME280;2591;48.144;15.152;2023-02-15T10:06:26;78144.13;;;-144.65;100.00
5146;BME280;2591;48.144;15.152;2023-02-15T10:09:10;78131.88;;;-144.65;100.00
5146;BME280;2591;48.144;15.152;2023-02-15T10:11:55;78113.53;;;-144.65;100.00
5146;BME280;2591;48.144;15.152;2023-02-15T10:14:39;78113.53;;;-144.65;100.00
5146;BME280;2591;48.144;15.152;2023-02-15T10:17:21;78119.66;;;-144.65;100.00
5146;BME280;2591;48.144;15.152;2023-02-15T10:19:58;78138.00;;;-144.65;100.00
5146;BME280;2591;48.144;15.152;2023-02-15T10:22:40;78129.84;;;-144.65;100.00
5146;BME280;2591;48.144;15.152;2023-02-15T10:25:24;78138.00;;;-144.65;100.00
5146;BME280;2591;48.144;15.152;2023-02-15T10:27:58;78117.59;;;-144.65;100.00
5146;BME280;2591;48.144;15.152;2023-02-15T10:30:37;78109.44;;;-144.65;100.00
5146;BME280;2591;48.144;15.152;2023-02-15T10:33:17;78087.00;;;-144.65;100.00
5146;BME280;2591;48.144;15.152;2023-02-15T10:35:57;78072.72;;;-144.65;100.00
5146;BME280;2591;48.144;15.152;2023-02-15T10:38:33;78068.66;;;-144.65;100.00
5146;BME280;2591;48.144;15.152;2023-02-15T10:41:13;78054.38;;;-144.65;100.00
5146;BME280;2591;48.144;15.152;2023-02-15T10:43:56;78050.28;;;-144.65;100.00
5146;BME280;2591;48.144;15.152;2023-02-15T10:46:40;78044.16;;;-144.65;100.00
5146;BME280;2591;48.144;15.152;2023-02-15T10:49:29;78033.97;;;-144.65;100.00
5146;BME280;2591;48.144;15.152;2023-02-15T10:52:14;78019.69;;;-144.65;100.00
5146;BME280;2591;48.144;15.152;2023-02-15T10:54:54;78015.59;;;-144.65;100.00
5146;BME280;2591;48.144;15.152;2023-02-15T10:57:34;78005.41;;;-144.65;100.00
5146;BME280;2591;48.144;15.152;2023-02-15T11:00:09;78025.81;;;-144.65;100.00
5146;BME280;2591;48.144;15.152;2023-02-15T11:05:41;78052.31;;;-144.65;100.00
5146;BME280;2591;48.144;15.152;2023-02-15T11:08:16;78058.44;;;-144.65;100.00
5146;BME280;2591;48.144;15.152;2023-02-15T11:10:47;78036.00;;;-144.65;100.00
5146;BME280;2591;48.144;15.152;2023-02-15T11:13:21;78033.97;;;-144.65;100.00
5146;BME280;2591;48.144;15.152;2023-02-15T11:15:53;78017.66;;;-144.65;100.00
5146;BME280;2591;48.144;15.152;2023-02-15T11:18:26;78003.38;;;-144.65;100.00
5146;BME280;2591;48.144;15.152;2023-02-15T11:20:59;78011.53;;;-144.65;100.00
5146;BME280;2591;48.144;15.152;2023-02-15T11:23:32;78005.41;;;-144.65;100.00
5146;BME280;2591;48.144;15.152;2023-02-15T11:26:03;77999.28;;;-144.65;100.00
5146;BME280;2591;48.144;15.152;2023-02-15T11:28:34;77995.22;;;-144.65;100.00
5146;BME280;2591;48.144;15.152;2023-02-15T11:31:12;77997.25;;;-144.65;100.00
5146;BME280;2591;48.144;15.152;2023-02-15T11:33:45;77999.28;;;-144.65;100.00
5146;BME280;2591;48.144;15.152;2023-02-15T11:36:17;78007.44;;;-144.65;100.00
5146;BME280;2591;48.144;15.152;2023-02-15T11:38:50;77991.13;;;-144.65;100.00
5146;BME280;2591;48.144;15.152;2023-02-15T11:41:25;77972.78;;;-144.65;100.00
5146;BME280;2591;48.144;15.152;2023-02-15T11:43:59;77970.72;;;-144.65;100.00
5146;BME280;2591;48.144;15.152;2023-02-15T11:46:28;77978.88;;;-144.65;100.00
5146;BME280;2591;48.144;15.152;2023-02-15T11:48:59;77985.00;;;-144.65;100.00
5146;BME280;2591;48.144;15.152;2023-02-15T11:51:27;77974.81;;;-144.65;100.00
5146;BME280;2591;48.144;15.152;2023-02-15T11:53:55;77972.78;;;-144.65;100.00
5146;BME280;2591;48.144;15.152;2023-02-15T11:56:25;77952.38;;;-144.65;100.00
5146;BME280;2591;48.144;15.152;2023-02-15T11:58:57;77944.22;;;-144.65;100.00
5146;BME280;2591;48.144;15.152;2023-02-15T12:01:30;77946.25;;;-144.65;100.00
5146;BME280;2591;48.144;15.152;2023-02-15T12:04:01;77942.16;;;-144.65;100.00
5146;BME280;2591;48.144;15.152;2023-02-15T12:06:34;77946.25;;;-144.65;100.00
5146;BME280;2591;48.144;15.152;2023-02-15T12:09:10;77938.09;;;-144.65;100.00
5146;BME280;2591;48.144;15.152;2023-02-15T12:11:42;77923.81;;;-144.65;100.00
5146;BME280;2591;48.144;15.152;2023-02-15T12:14:12;77923.81;;;-144.65;100.00
5146;BME280;2591;48.144;15.152;2023-02-15T12:16:44;77921.78;;;-144.65;100.00
5146;BME280;2591;48.144;15.152;2023-02-15T12:19:29;77917.69;;;-144.65;100.00
5146;BME280;2591;48.144;15.152;2023-02-15T12:22:01;77909.53;;;-144.65;100.00
5146;BME280;2591;48.144;15.152;2023-02-15T12:24:32;77913.63;;;-144.65;100.00
5146;BME280;2591;48.144;15.152;2023-02-15T12:27:04;77905.47;;;-144.65;100.00
5146;BME280;2591;48.144;15.152;2023-02-15T12:29:39;77905.47;;;-144.65;100.00
5146;BME280;2591;48.144;15.152;2023-02-15T12:32:15;77903.41;;;-144.65;100.00
5146;BME280;2591;48.144;15.152;2023-02-15T12:34:45;77897.28;;;-144.65;100.00
5146;BME280;2591;48.144;15.152;2023-02-15T12:37:17;77905.47;;;-144.65;100.00
5146;BME280;2591;48.144;15.152;2023-02-15T12:39:52;77909.53;;;-144.65;99.74
5146;BME280;2591;48.144;15.152;2023-02-15T12:42:21;77901.38;;;-144.65;100.00
5146;BME280;2591;48.144;15.152;2023-02-15T12:44:59;77905.47;;;-144.65;100.00
5146;BME280;2591;48.144;15.152;2023-02-15T12:47:28;77925.84;;;-144.65;99.57
5146;BME280;2591;48.144;15.152;2023-02-15T12:50:06;77909.53;;;-144.65;100.00
5146;BME280;2591;48.144;15.152;2023-02-15T12:52:38;77893.22;;;-144.65;100.00
5146;BME280;2591;48.144;15.152;2023-02-15T12:55:11;77872.81;;;-144.65;100.00
5146;BME280;2591;48.144;15.152;2023-02-15T12:57:45;77868.75;;;-144.65;100.00
5146;BME280;2591;48.144;15.152;2023-02-15T13:00:28;77862.63;;;-144.65;100.00
5146;BME280;2591;48.144;15.152;2023-02-15T13:02:59;77852.41;;;-144.65;99.54
5146;BME280;2591;48.144;15.152;2023-02-15T13:05:32;77858.53;;;-144.65;98.64
5146;BME280;2591;48.144;15.152;2023-02-15T13:08:03;77866.69;;;-144.65;98.08
5146;BME280;2591;48.144;15.152;2023-02-15T13:10:39;77874.84;;;-144.65;97.75
5146;BME280;2591;48.144;15.152;2023-02-15T13:13:11;77856.50;;;-144.65;98.96